sensor_id;sensor_type;location;lat;lon;timestamp;P1;durP1;ratioP1;P2;durP2;ratioP2
970;SDS011;28939;45.540;-122.632;2022-09-02T00:02:16;6.67;;;5.60;;
970;SDS011;28939;45.540;-122.632;2022-09-02T00:04:47;5.60;;;5.07;;
970;SDS011;28939;45.540;-122.632;2022-09-02T00:07:20;6.10;;;5.50;;
970;SDS011;28939;45.540;-122.632;2022-09-02T00:09:50;6.70;;;6.10;;
970;SDS011;28939;45.540;-122.632;2022-09-02T00:12:21;5.37;;;4.77;;
970;SDS011;28939;45.540;-122.632;2022-09-02T00:14:52;5.70;;;5.20;;
970;SDS011;28939;45.540;-122.632;2022-09-02T00:17:23;6.07;;;4.77;;
970;SDS011;28939;45.540;-122.632;2022-09-02T00:19:54;6.30;;;4.90;;
970;SDS011;28939;45.540;-122.632;2022-09-02T00:22:27;6.00;;;4.90;;
970;SDS011;28939;45.540;-122.632;2022-09-02T00:24:57;5.07;;;4.57;;
970;SDS011;28939;45.540;-122.632;2022-09-02T00:27:28;5.33;;;4.80;;
970;SDS011;28939;45.540;-122.632;2022-09-02T00:29:59;5.63;;;5.07;;
970;SDS011;28939;45.540;-122.632;2022-09-02T00:32:30;5.10;;;4.60;;
970;SDS011;28939;45.540;-122.632;2022-09-02T00:35:01;4.93;;;4.40;;
970;SDS011;28939;45.540;-122.632;2022-09-02T00:37:33;5.20;;;4.70;;
970;SDS011;28939;45.540;-122.632;2022-09-02T00:40:05;4.80;;;4.30;;
970;SDS011;28939;45.540;-122.632;2022-09-02T00:42:38;4.80;;;4.23;;
970;SDS011;28939;45.540;-122.632;2022-09-02T00:45:09;5.90;;;4.97;;
970;SDS011;28939;45.540;-122.632;2022-09-02T00:47:41;6.20;;;5.23;;
970;SDS011;28939;45.540;-122.632;2022-09-02T00:50:12;4.97;;;4.57;;
970;SDS011;28939;45.540;-122.632;2022-09-02T00:52:48;5.00;;;4.50;;
970;SDS011;28939;45.540;-122.632;2022-09-02T00:55:21;7.53;;;5.33;;
970;SDS011;28939;45.540;-122.632;2022-09-02T00:57:56;6.30;;;5.70;;
970;SDS011;28939;45.540;-122.632;2022-09-02T01:00:29;5.63;;;5.10;;
970;SDS011;28939;45.540;-122.632;2022-09-02T01:03:04;5.50;;;5.00;;
970;SDS011;28939;45.540;-122.632;2022-09-02T01:05:37;5.70;;;5.20;;
970;SDS011;28939;45.540;-122.632;2022-09-02T01:08:13;7.07;;;6.40;;
970;SDS011;28939;45.540;-122.632;2022-09-02T01:10:47;6.50;;;5.80;;
970;SDS011;28939;45.540;-122.632;2022-09-02T01:13:20;6.00;;;5.40;;
970;SDS011;28939;45.540;-122.632;2022-09-02T01:15:53;6.00;;;5.40;;
970;SDS011;28939;45.540;-122.632;2022-09-02T01:18:27;6.60;;;5.73;;
970;SDS011;28939;45.540;-122.632;2022-09-02T01:20:58;5.90;;;5.00;;
970;SDS011;28939;45.540;-122.632;2022-09-02T01:23:31;8.00;;;5.50;;
970;SDS011;28939;45.540;-122.632;2022-09-02T01:26:03;6.37;;;5.77;;
970;SDS011;28939;45.540;-122.632;2022-09-02T01:28:35;5.90;;;5.30;;
970;SDS011;28939;45.540;-122.632;2022-09-02T01:31:05;5.57;;;5.13;;
970;SDS011;28939;45.540;-122.632;2022-09-02T01:33:36;5.53;;;4.87;;
970;SDS011;28939;45.540;-122.632;2022-09-02T01:36:09;5.70;;;5.20;;
970;SDS011;28939;45.540;-122.632;2022-09-02T01:38:41;5.30;;;4.83;;
970;SDS011;28939;45.540;-122.632;2022-09-02T01:41:12;6.10;;;5.40;;
970;SDS011;28939;45.540;-122.632;2022-09-02T01:43:43;6.80;;;5.10;;
970;SDS011;28939;45.540;-122.632;2022-09-02T01:46:14;4.60;;;4.20;;
970;SDS011;28939;45.540;-122.632;2022-09-02T01:48:45;5.87;;;4.90;;
970;SDS011;28939;45.540;-122.632;2022-09-02T01:51:16;5.00;;;4.53;;
970;SDS011;28939;45.540;-122.632;2022-09-02T01:53:50;5.37;;;4.10;;
970;SDS011;28939;45.540;-122.632;2022-09-02T01:56:21;4.97;;;4.50;;
970;SDS011;28939;45.540;-122.632;2022-09-02T01:58:53;5.27;;;4.70;;
970;SDS011;28939;45.540;-122.632;2022-09-02T02:01:23;5.50;;;4.90;;
970;SDS011;28939;45.540;-122.632;2022-09-02T02:03:55;6.30;;;4.50;;
970;SDS011;28939;45.540;-122.632;2022-09-02T02:06:26;5.20;;;4.50;;
970;SDS011;28939;45.540;-122.632;2022-09-02T02:08:58;4.73;;;4.23;;
970;SDS011;28939;45.540;-122.632;2022-09-02T02:11:29;5.90;;;4.77;;
970;SDS011;28939;45.540;-122.632;2022-09-02T02:13:59;4.20;;;3.80;;
970;SDS011;28939;45.540;-122.632;2022-09-02T02:16:30;7.43;;;4.57;;
970;SDS011;28939;45.540;-122.632;2022-09-02T02:19:02;4.80;;;4.40;;
970;SDS011;28939;45.540;-122.632;2022-09-02T02:21:33;4.87;;;4.37;;
970;SDS011;28939;45.540;-122.632;2022-09-02T02:24:06;5.60;;;4.70;;
970;SDS011;28939;45.540;-122.632;2022-09-02T02:26:37;5.40;;;3.90;;
970;SDS011;28939;45.540;-122.632;2022-09-02T02:29:08;5.00;;;4.20;;
970;SDS011;28939;45.540;-122.632;2022-09-02T02:31:40;5.30;;;4.80;;
970;SDS011;28939;45.540;-122.632;2022-09-02T02:34:12;5.43;;;4.57;;
970;SDS011;28939;45.540;-122.632;2022-09-02T02:36:42;7.73;;;5.07;;
970;SDS011;28939;45.540;-122.632;2022-09-02T02:39:15;4.80;;;4.13;;
970;SDS011;28939;45.540;-122.632;2022-09-02T02:41:46;5.80;;;4.90;;
970;SDS011;28939;45.540;-122.632;2022-09-02T02:44:16;4.80;;;4.40;;
970;SDS011;28939;45.540;-122.632;2022-09-02T02:46:47;5.63;;;4.60;;
970;SDS011;28939;45.540;-122.632;2022-09-02T02:49:18;4.90;;;4.40;;
970;SDS011;28939;45.540;-122.632;2022-09-02T02:51:49;7.50;;;6.10;;
970;SDS011;28939;45.540;-122.632;2022-09-02T02:54:22;7.60;;;5.93;;
970;SDS011;28939;45.540;-122.632;2022-09-02T02:57:00;8.03;;;6.40;;
970;SDS011;28939;45.540;-122.632;2022-09-02T02:59:31;11.97;;;8.90;;
970;SDS011;28939;45.540;-122.632;2022-09-02T03:02:03;9.57;;;8.57;;
970;SDS011;28939;45.540;-122.632;2022-09-02T03:04:35;9.20;;;7.50;;
970;SDS011;28939;45.540;-122.632;2022-09-02T03:07:07;8.20;;;6.60;;
970;SDS011;28939;45.540;-122.632;2022-09-02T03:09:40;6.47;;;5.77;;
970;SDS011;28939;45.540;-122.632;2022-09-02T03:12:11;6.23;;;5.63;;
970;SDS011;28939;45.540;-122.632;2022-09-02T03:14:43;6.73;;;5.07;;
970;SDS011;28939;45.540;-122.632;2022-09-02T03:17:14;7.67;;;4.83;;
970;SDS011;28939;45.540;-122.632;2022-09-02T03:19:45;7.20;;;5.03;;
970;SDS011;28939;45.540;-122.632;2022-09-02T03:22:17;5.80;;;5.30;;
970;SDS011;28939;45.540;-122.632;2022-09-02T03:24:49;6.60;;;5.43;;
970;SDS011;28939;45.540;-122.632;2022-09-02T03:27:20;6.13;;;4.80;;
970;SDS011;28939;45.540;-122.632;2022-09-02T03:29:51;8.03;;;5.43;;
970;SDS011;28939;45.540;-122.632;2022-09-02T03:32:21;6.00;;;4.80;;
970;SDS011;28939;45.540;-122.632;2022-09-02T03:34:56;5.90;;;4.93;;
970;SDS011;28939;45.540;-122.632;2022-09-02T03:37:27;5.93;;;5.30;;
970;SDS011;28939;45.540;-122.632;2022-09-02T03:39:59;6.10;;;5.37;;
970;SDS011;28939;45.540;-122.632;2022-09-02T03:42:30;6.23;;;5.27;;
970;SDS011;28939;45.540;-122.632;2022-09-02T03:45:02;5.93;;;5.27;;
970;SDS011;28939;45.540;-122.632;2022-09-02T03:47:33;6.00;;;5.40;;
970;SDS011;28939;45.540;-122.632;2022-09-02T03:50:07;5.50;;;4.90;;
970;SDS011;28939;45.540;-122.632;2022-09-02T03:52:38;5.47;;;4.97;;
970;SDS011;28939;45.540;-122.632;2022-09-02T03:55:10;7.47;;;4.50;;
970;SDS011;28939;45.540;-122.632;2022-09-02T03:57:41;5.70;;;5.20;;
970;SDS011;28939;45.540;-122.632;2022-09-02T04:00:13;7.50;;;5.90;;
970;SDS011;28939;45.540;-122.632;2022-09-02T04:02:46;5.60;;;5.00;;
970;SDS011;28939;45.540;-122.632;2022-09-02T04:05:17;6.07;;;5.37;;
970;SDS011;28939;45.540;-122.632;2022-09-02T04:07:49;7.13;;;5.57;;
970;SDS011;28939;45.540;-122.632;2022-09-02T04:10:22;6.03;;;4.73;;
970;SDS011;28939;45.540;-122.632;2022-09-02T04:12:53;6.00;;;5.20;;
970;SDS011;28939;45.540;-122.632;2022-09-02T04:15:24;7.13;;;5.57;;
970;SDS011;28939;45.540;-122.632;2022-09-02T04:17:54;6.93;;;5.87;;
970;SDS011;28939;45.540;-122.632;2022-09-02T04:20:25;6.80;;;5.97;;
970;SDS011;28939;45.540;-122.632;2022-09-02T04:22:56;7.47;;;6.13;;
970;SDS011;28939;45.540;-122.632;2022-09-02T04:25:28;6.77;;;5.53;;
970;SDS011;28939;45.540;-122.632;2022-09-02T04:27:59;6.43;;;5.37;;
970;SDS011;28939;45.540;-122.632;2022-09-02T04:30:30;6.20;;;5.60;;
970;SDS011;28939;45.540;-122.632;2022-09-02T04:33:01;6.07;;;5.57;;
970;SDS011;28939;45.540;-122.632;2022-09-02T04:35:32;6.53;;;5.10;;
970;SDS011;28939;45.540;-122.632;2022-09-02T04:38:03;6.30;;;5.70;;
970;SDS011;28939;45.540;-122.632;2022-09-02T04:40:38;6.57;;;5.70;;
970;SDS011;28939;45.540;-122.632;2022-09-02T04:43:10;8.13;;;5.77;;
970;SDS011;28939;45.540;-122.632;2022-09-02T04:45:42;8.00;;;6.17;;
970;SDS011;28939;45.540;-122.632;2022-09-02T04:48:14;6.77;;;5.40;;
970;SDS011;28939;45.540;-122.632;2022-09-02T04:50:45;7.60;;;5.93;;
970;SDS011;28939;45.540;-122.632;2022-09-02T04:53:16;6.30;;;5.33;;
970;SDS011;28939;45.540;-122.632;2022-09-02T04:55:48;7.40;;;5.70;;
970;SDS011;28939;45.540;-122.632;2022-09-02T04:58:23;7.63;;;5.93;;
970;SDS011;28939;45.540;-122.632;2022-09-02T05:00:55;8.03;;;6.37;;
970;SDS011;28939;45.540;-122.632;2022-09-02T05:03:25;8.83;;;5.60;;
970;SDS011;28939;45.540;-122.632;2022-09-02T05:05:59;6.53;;;5.80;;
970;SDS011;28939;45.540;-122.632;2022-09-02T05:08:31;7.43;;;5.63;;
970;SDS011;28939;45.540;-122.632;2022-09-02T05:11:06;7.33;;;5.63;;
970;SDS011;28939;45.540;-122.632;2022-09-02T05:13:37;9.43;;;5.23;;
970;SDS011;28939;45.540;-122.632;2022-09-02T05:16:08;7.10;;;6.07;;
970;SDS011;28939;45.540;-122.632;2022-09-02T05:18:39;7.63;;;6.40;;
970;SDS011;28939;45.540;-122.632;2022-09-02T05:21:09;6.37;;;5.20;;
970;SDS011;28939;45.540;-122.632;2022-09-02T05:23:40;9.23;;;6.67;;
970;SDS011;28939;45.540;-122.632;2022-09-02T05:26:13;8.30;;;5.53;;
970;SDS011;28939;45.540;-122.632;2022-09-02T05:28:44;7.60;;;5.67;;
970;SDS011;28939;45.540;-122.632;2022-09-02T05:31:16;8.63;;;6.73;;
970;SDS011;28939;45.540;-122.632;2022-09-02T05:33:49;7.93;;;5.53;;
970;SDS011;28939;45.540;-122.632;2022-09-02T05:36:20;6.80;;;6.10;;
970;SDS011;28939;45.540;-122.632;2022-09-02T05:38:52;7.80;;;7.00;;
970;SDS011;28939;45.540;-122.632;2022-09-02T05:41:25;7.33;;;6.10;;
970;SDS011;28939;45.540;-122.632;2022-09-02T05:43:57;8.73;;;6.60;;
970;SDS011;28939;45.540;-122.632;2022-09-02T05:46:29;7.57;;;5.70;;
970;SDS011;28939;45.540;-122.632;2022-09-02T05:49:01;8.97;;;6.20;;
970;SDS011;28939;45.540;-122.632;2022-09-02T05:51:40;6.77;;;6.00;;
970;SDS011;28939;45.540;-122.632;2022-09-02T05:54:13;6.20;;;5.60;;
970;SDS011;28939;45.540;-122.632;2022-09-02T05:56:47;6.63;;;5.40;;
970;SDS011;28939;45.540;-122.632;2022-09-02T05:59:20;7.63;;;6.37;;
970;SDS011;28939;45.540;-122.632;2022-09-02T06:01:51;8.50;;;6.40;;
970;SDS011;28939;45.540;-122.632;2022-09-02T06:04:23;7.10;;;5.77;;
970;SDS011;28939;45.540;-122.632;2022-09-02T06:06:54;8.63;;;6.37;;
970;SDS011;28939;45.540;-122.632;2022-09-02T06:09:25;7.63;;;5.97;;
970;SDS011;28939;45.540;-122.632;2022-09-02T06:11:58;6.93;;;5.30;;
970;SDS011;28939;45.540;-122.632;2022-09-02T06:14:29;7.53;;;4.87;;
970;SDS011;28939;45.540;-122.632;2022-09-02T06:17:01;8.30;;;5.90;;
970;SDS011;28939;45.540;-122.632;2022-09-02T06:19:33;7.70;;;5.27;;
970;SDS011;28939;45.540;-122.632;2022-09-02T06:22:04;6.93;;;5.93;;
970;SDS011;28939;45.540;-122.632;2022-09-02T06:24:37;8.47;;;6.60;;
970;SDS011;28939;45.540;-122.632;2022-09-02T06:27:09;6.63;;;5.83;;
970;SDS011;28939;45.540;-122.632;2022-09-02T06:29:40;7.53;;;5.50;;
970;SDS011;28939;45.540;-122.632;2022-09-02T06:32:12;7.57;;;5.90;;
970;SDS011;28939;45.540;-122.632;2022-09-02T06:34:43;7.73;;;6.20;;
970;SDS011;28939;45.540;-122.632;2022-09-02T06:37:14;8.17;;;6.07;;
970;SDS011;28939;45.540;-122.632;2022-09-02T06:39:46;8.83;;;6.23;;
970;SDS011;28939;45.540;-122.632;2022-09-02T06:42:18;8.17;;;6.60;;
970;SDS011;28939;45.540;-122.632;2022-09-02T06:44:50;7.60;;;6.57;;
970;SDS011;28939;45.540;-122.632;2022-09-02T06:47:20;8.20;;;6.50;;
970;SDS011;28939;45.540;-122.632;2022-09-02T06:49:51;7.40;;;4.57;;
970;SDS011;28939;45.540;-122.632;2022-09-02T06:52:23;7.50;;;5.97;;
970;SDS011;28939;45.540;-122.632;2022-09-02T06:54:54;7.23;;;5.33;;
970;SDS011;28939;45.540;-122.632;2022-09-02T06:57:27;6.40;;;5.70;;
970;SDS011;28939;45.540;-122.632;2022-09-02T07:00:00;7.50;;;6.17;;
970;SDS011;28939;45.540;-122.632;2022-09-02T07:02:32;8.17;;;6.00;;
970;SDS011;28939;45.540;-122.632;2022-09-02T07:05:04;8.40;;;6.30;;
970;SDS011;28939;45.540;-122.632;2022-09-02T07:07:39;8.47;;;5.93;;
970;SDS011;28939;45.540;-122.632;2022-09-02T07:10:12;8.40;;;6.63;;
970;SDS011;28939;45.540;-122.632;2022-09-02T07:12:46;8.60;;;6.80;;
970;SDS011;28939;45.540;-122.632;2022-09-02T07:15:17;7.60;;;6.10;;
970;SDS011;28939;45.540;-122.632;2022-09-02T07:17:48;8.07;;;6.40;;
970;SDS011;28939;45.540;-122.632;2022-09-02T07:20:19;6.67;;;5.40;;
970;SDS011;28939;45.540;-122.632;2022-09-02T07:22:50;10.80;;;6.60;;
970;SDS011;28939;45.540;-122.632;2022-09-02T07:25:22;8.27;;;6.30;;
970;SDS011;28939;45.540;-122.632;2022-09-02T07:27:57;8.30;;;6.40;;
970;SDS011;28939;45.540;-122.632;2022-09-02T07:30:28;9.20;;;6.70;;
970;SDS011;28939;45.540;-122.632;2022-09-02T07:32:59;6.87;;;6.17;;
970;SDS011;28939;45.540;-122.632;2022-09-02T07:35:31;8.80;;;6.40;;
970;SDS011;28939;45.540;-122.632;2022-09-02T07:38:03;7.07;;;6.00;;
970;SDS011;28939;45.540;-122.632;2022-09-02T07:40:34;6.30;;;5.00;;
970;SDS011;28939;45.540;-122.632;2022-09-02T07:43:08;9.60;;;6.03;;
970;SDS011;28939;45.540;-122.632;2022-09-02T07:45:40;7.83;;;6.47;;
970;SDS011;28939;45.540;-122.632;2022-09-02T07:48:11;8.47;;;6.07;;
970;SDS011;28939;45.540;-122.632;2022-09-02T07:50:42;8.93;;;6.57;;
970;SDS011;28939;45.540;-122.632;2022-09-02T07:53:14;6.73;;;6.00;;
970;SDS011;28939;45.540;-122.632;2022-09-02T07:55:45;6.30;;;5.60;;
970;SDS011;28939;45.540;-122.632;2022-09-02T07:58:18;8.47;;;7.17;;
970;SDS011;28939;45.540;-122.632;2022-09-02T08:00:50;7.20;;;6.10;;
970;SDS011;28939;45.540;-122.632;2022-09-02T08:03:22;6.40;;;5.80;;
970;SDS011;28939;45.540;-122.632;2022-09-02T08:05:55;8.27;;;6.63;;
970;SDS011;28939;45.540;-122.632;2022-09-02T08:08:27;7.53;;;6.70;;
970;SDS011;28939;45.540;-122.632;2022-09-02T08:10:58;9.40;;;6.87;;
970;SDS011;28939;45.540;-122.632;2022-09-02T08:13:31;9.30;;;6.20;;
970;SDS011;28939;45.540;-122.632;2022-09-02T08:16:02;9.40;;;6.23;;
970;SDS011;28939;45.540;-122.632;2022-09-02T08:18:35;7.80;;;5.90;;
970;SDS011;28939;45.540;-122.632;2022-09-02T08:21:06;7.00;;;6.30;;
970;SDS011;28939;45.540;-122.632;2022-09-02T08:23:36;9.73;;;6.50;;
970;SDS011;28939;45.540;-122.632;2022-09-02T08:26:07;8.57;;;7.30;;
970;SDS011;28939;45.540;-122.632;2022-09-02T08:28:40;7.97;;;6.67;;
970;SDS011;28939;45.540;-122.632;2022-09-02T08:31:10;7.50;;;6.20;;
970;SDS011;28939;45.540;-122.632;2022-09-02T08:33:41;8.60;;;6.70;;
970;SDS011;28939;45.540;-122.632;2022-09-02T08:36:12;8.17;;;6.27;;
970;SDS011;28939;45.540;-122.632;2022-09-02T08:38:43;7.67;;;5.93;;
970;SDS011;28939;45.540;-122.632;2022-09-02T08:41:16;9.20;;;6.50;;
970;SDS011;28939;45.540;-122.632;2022-09-02T08:43:52;8.77;;;6.47;;
970;SDS011;28939;45.540;-122.632;2022-09-02T08:46:26;7.00;;;6.30;;
970;SDS011;28939;45.540;-122.632;2022-09-02T08:49:01;11.33;;;6.70;;
970;SDS011;28939;45.540;-122.632;2022-09-02T08:51:35;7.73;;;6.57;;
970;SDS011;28939;45.540;-122.632;2022-09-02T08:54:18;8.60;;;7.53;;
970;SDS011;28939;45.540;-122.632;2022-09-02T08:56:54;8.20;;;7.20;;
970;SDS011;28939;45.540;-122.632;2022-09-02T08:59:27;10.43;;;7.20;;
970;SDS011;28939;45.540;-122.632;2022-09-02T09:02:01;7.93;;;6.37;;
970;SDS011;28939;45.540;-122.632;2022-09-02T09:04:42;9.57;;;6.57;;
970;SDS011;28939;45.540;-122.632;2022-09-02T09:07:28;8.40;;;7.03;;
970;SDS011;28939;45.540;-122.632;2022-09-02T09:10:08;8.10;;;6.60;;
970;SDS011;28939;45.540;-122.632;2022-09-02T09:12:55;8.33;;;6.40;;
970;SDS011;28939;45.540;-122.632;2022-09-02T09:15:35;10.33;;;7.70;;
970;SDS011;28939;45.540;-122.632;2022-09-02T09:18:11;9.27;;;6.97;;
970;SDS011;28939;45.540;-122.632;2022-09-02T09:20:46;9.20;;;6.70;;
970;SDS011;28939;45.540;-122.632;2022-09-02T09:23:20;9.50;;;7.40;;
970;SDS011;28939;45.540;-122.632;2022-09-02T09:26:04;8.73;;;5.90;;
970;SDS011;28939;45.540;-122.632;2022-09-02T09:28:38;9.53;;;6.93;;
970;SDS011;28939;45.540;-122.632;2022-09-02T09:31:12;9.13;;;6.30;;
970;SDS011;28939;45.540;-122.632;2022-09-02T09:33:55;10.30;;;7.10;;
970;SDS011;28939;45.540;-122.632;2022-09-02T09:36:43;9.43;;;5.70;;
970;SDS011;28939;45.540;-122.632;2022-09-02T09:39:17;10.07;;;6.57;;
970;SDS011;28939;45.540;-122.632;2022-09-02T09:41:53;10.23;;;7.40;;
970;SDS011;28939;45.540;-122.632;2022-09-02T09:44:35;8.70;;;6.30;;
970;SDS011;28939;45.540;-122.632;2022-09-02T09:47:17;9.87;;;7.13;;
970;SDS011;28939;45.540;-122.632;2022-09-02T09:49:49;10.73;;;6.20;;
970;SDS011;28939;45.540;-122.632;2022-09-02T09:52:22;8.33;;;5.90;;
970;SDS011;28939;45.540;-122.632;2022-09-02T09:57:51;8.33;;;5.30;;
970;SDS011;28939;45.540;-122.632;2022-09-02T10:00:35;7.87;;;5.90;;
970;SDS011;28939;45.540;-122.632;2022-09-02T10:03:10;8.03;;;6.27;;
970;SDS011;28939;45.540;-122.632;2022-09-02T10:05:52;8.90;;;6.60;;
970;SDS011;28939;45.540;-122.632;2022-09-02T10:08:24;9.37;;;6.40;;
970;SDS011;28939;45.540;-122.632;2022-09-02T10:10:58;10.23;;;6.67;;
970;SDS011;28939;45.540;-122.632;2022-09-02T10:13:31;11.70;;;6.80;;
970;SDS011;28939;45.540;-122.632;2022-09-02T10:16:09;10.40;;;7.07;;
970;SDS011;28939;45.540;-122.632;2022-09-02T10:18:54;9.67;;;6.87;;
970;SDS011;28939;45.540;-122.632;2022-09-02T10:21:34;8.33;;;5.90;;
970;SDS011;28939;45.540;-122.632;2022-09-02T10:24:23;9.97;;;6.67;;
970;SDS011;28939;45.540;-122.632;2022-09-02T10:27:05;10.63;;;6.90;;
970;SDS011;28939;45.540;-122.632;2022-09-02T10:29:47;9.03;;;6.63;;
970;SDS011;28939;45.540;-122.632;2022-09-02T10:32:30;8.50;;;7.60;;
970;SDS011;28939;45.540;-122.632;2022-09-02T10:35:20;8.90;;;6.20;;
970;SDS011;28939;45.540;-122.632;2022-09-02T10:38:00;7.97;;;6.10;;
970;SDS011;28939;45.540;-122.632;2022-09-02T10:40:42;7.87;;;6.40;;
970;SDS011;28939;45.540;-122.632;2022-09-02T10:43:24;8.40;;;6.33;;
970;SDS011;28939;45.540;-122.632;2022-09-02T10:46:02;9.07;;;6.87;;
970;SDS011;28939;45.540;-122.632;2022-09-02T10:48:40;11.27;;;7.43;;
970;SDS011;28939;45.540;-122.632;2022-09-02T10:51:23;7.80;;;6.37;;
970;SDS011;28939;45.540;-122.632;2022-09-02T10:54:07;8.47;;;5.80;;
970;SDS011;28939;45.540;-122.632;2022-09-02T10:56:51;10.17;;;7.20;;
970;SDS011;28939;45.540;-122.632;2022-09-02T10:59:28;8.50;;;5.93;;
970;SDS011;28939;45.540;-122.632;2022-09-02T11:02:05;7.37;;;5.20;;
970;SDS011;28939;45.540;-122.632;2022-09-02T11:04:43;9.60;;;7.20;;
970;SDS011;28939;45.540;-122.632;2022-09-02T11:07:25;7.50;;;5.57;;
970;SDS011;28939;45.540;-122.632;2022-09-02T11:10:02;9.60;;;6.80;;
970;SDS011;28939;45.540;-122.632;2022-09-02T11:12:38;10.10;;;6.73;;
970;SDS011;28939;45.540;-122.632;2022-09-02T11:15:14;11.00;;;6.90;;
970;SDS011;28939;45.540;-122.632;2022-09-02T11:17:50;10.00;;;6.80;;
970;SDS011;28939;45.540;-122.632;2022-09-02T11:20:29;12.13;;;7.70;;
970;SDS011;28939;45.540;-122.632;2022-09-02T11:23:08;10.30;;;6.80;;
970;SDS011;28939;45.540;-122.632;2022-09-02T11:25:46;8.27;;;6.50;;
970;SDS011;28939;45.540;-122.632;2022-09-02T11:28:24;8.93;;;7.43;;
970;SDS011;28939;45.540;-122.632;2022-09-02T11:31:03;8.23;;;6.73;;
970;SDS011;28939;45.540;-122.632;2022-09-02T11:33:43;9.03;;;5.80;;
970;SDS011;28939;45.540;-122.632;2022-09-02T11:36:19;6.33;;;5.63;;
970;SDS011;28939;45.540;-122.632;2022-09-02T11:38:53;7.70;;;6.47;;
970;SDS011;28939;45.540;-122.632;2022-09-02T11:41:31;7.70;;;5.47;;
970;SDS011;28939;45.540;-122.632;2022-09-02T11:44:22;9.33;;;7.37;;
970;SDS011;28939;45.540;-122.632;2022-09-02T11:47:41;9.27;;;6.57;;
970;SDS011;28939;45.540;-122.632;2022-09-02T11:50:42;7.70;;;6.20;;
970;SDS011;28939;45.540;-122.632;2022-09-02T11:53:23;9.67;;;6.57;;
970;SDS011;28939;45.540;-122.632;2022-09-02T11:56:00;11.10;;;7.33;;
970;SDS011;28939;45.540;-122.632;2022-09-02T11:58:34;10.53;;;7.07;;
970;SDS011;28939;45.540;-122.632;2022-09-02T12:01:18;10.80;;;7.20;;
970;SDS011;28939;45.540;-122.632;2022-09-02T12:03:56;8.10;;;6.20;;
970;SDS011;28939;45.540;-122.632;2022-09-02T12:09:57;8.30;;;6.80;;
970;SDS011;28939;45.540;-122.632;2022-09-02T12:15:35;7.60;;;5.37;;
970;SDS011;28939;45.540;-122.632;2022-09-02T12:18:11;8.73;;;6.60;;
970;SDS011;28939;45.540;-122.632;2022-09-02T12:27:05;9.97;;;6.90;;
970;SDS011;28939;45.540;-122.632;2022-09-02T12:29:40;9.53;;;7.20;;
970;SDS011;28939;45.540;-122.632;2022-09-02T12:32:12;11.20;;;6.97;;
970;SDS011;28939;45.540;-122.632;2022-09-02T12:35:30;11.20;;;7.00;;
970;SDS011;28939;45.540;-122.632;2022-09-02T12:41:10;10.33;;;6.50;;
970;SDS011;28939;45.540;-122.632;2022-09-02T12:43:55;9.90;;;7.63;;
970;SDS011;28939;45.540;-122.632;2022-09-02T12:46:54;11.07;;;7.07;;
970;SDS011;28939;45.540;-122.632;2022-09-02T12:49:39;10.37;;;5.43;;
970;SDS011;28939;45.540;-122.632;2022-09-02T12:52:40;8.63;;;6.80;;
970;SDS011;28939;45.540;-122.632;2022-09-02T12:55:15;9.17;;;6.33;;
970;SDS011;28939;45.540;-122.632;2022-09-02T12:57:50;7.57;;;5.70;;
970;SDS011;28939;45.540;-122.632;2022-09-02T13:00:28;7.77;;;5.70;;
970;SDS011;28939;45.540;-122.632;2022-09-02T13:03:12;9.00;;;6.50;;
970;SDS011;28939;45.540;-122.632;2022-09-02T13:06:00;9.10;;;5.80;;
970;SDS011;28939;45.540;-122.632;2022-09-02T13:08:43;12.17;;;7.93;;
970;SDS011;28939;45.540;-122.632;2022-09-02T13:14:53;8.57;;;6.50;;
970;SDS011;28939;45.540;-122.632;2022-09-02T13:17:44;7.40;;;6.30;;
970;SDS011;28939;45.540;-122.632;2022-09-02T13:23:48;8.10;;;6.10;;
970;SDS011;28939;45.540;-122.632;2022-09-02T13:26:46;7.67;;;5.50;;
970;SDS011;28939;45.540;-122.632;2022-09-02T13:32:37;10.13;;;6.90;;
970;SDS011;28939;45.540;-122.632;2022-09-02T13:35:16;10.13;;;6.10;;
970;SDS011;28939;45.540;-122.632;2022-09-02T13:37:53;8.70;;;5.80;;
970;SDS011;28939;45.540;-122.632;2022-09-02T13:40:28;10.00;;;6.90;;
970;SDS011;28939;45.540;-122.632;2022-09-02T13:43:02;8.77;;;5.80;;
970;SDS011;28939;45.540;-122.632;2022-09-02T13:45:44;7.97;;;6.17;;
970;SDS011;28939;45.540;-122.632;2022-09-02T13:48:17;6.40;;;5.60;;
970;SDS011;28939;45.540;-122.632;2022-09-02T13:50:50;7.57;;;5.60;;
970;SDS011;28939;45.540;-122.632;2022-09-02T13:53:24;8.60;;;5.97;;
970;SDS011;28939;45.540;-122.632;2022-09-02T13:56:22;8.90;;;6.80;;
970;SDS011;28939;45.540;-122.632;2022-09-02T13:58:57;9.27;;;6.03;;
970;SDS011;28939;45.540;-122.632;2022-09-02T14:01:29;7.43;;;5.57;;
970;SDS011;28939;45.540;-122.632;2022-09-02T14:04:02;7.30;;;6.20;;
970;SDS011;28939;45.540;-122.632;2022-09-02T14:06:36;8.63;;;6.30;;
970;SDS011;28939;45.540;-122.632;2022-09-02T14:09:10;8.30;;;4.90;;
970;SDS011;28939;45.540;-122.632;2022-09-02T14:11:50;8.57;;;7.03;;
970;SDS011;28939;45.540;-122.632;2022-09-02T14:14:22;7.97;;;5.50;;
970;SDS011;28939;45.540;-122.632;2022-09-02T14:19:49;8.87;;;6.30;;
970;SDS011;28939;45.540;-122.632;2022-09-02T14:22:26;11.10;;;6.83;;
970;SDS011;28939;45.540;-122.632;2022-09-02T14:24:59;9.50;;;7.20;;
970;SDS011;28939;45.540;-122.632;2022-09-02T14:27:42;10.70;;;6.90;;
970;SDS011;28939;45.540;-122.632;2022-09-02T14:30:30;9.40;;;6.53;;
970;SDS011;28939;45.540;-122.632;2022-09-02T14:33:15;9.63;;;6.90;;
970;SDS011;28939;45.540;-122.632;2022-09-02T14:35:58;8.33;;;6.30;;
970;SDS011;28939;45.540;-122.632;2022-09-02T14:38:30;7.60;;;6.00;;
970;SDS011;28939;45.540;-122.632;2022-09-02T14:41:05;8.17;;;5.90;;
970;SDS011;28939;45.540;-122.632;2022-09-02T14:43:44;8.93;;;6.20;;
970;SDS011;28939;45.540;-122.632;2022-09-02T14:46:20;7.93;;;6.77;;
970;SDS011;28939;45.540;-122.632;2022-09-02T14:48:58;7.77;;;6.67;;
970;SDS011;28939;45.540;-122.632;2022-09-02T14:51:35;9.97;;;7.10;;
970;SDS011;28939;45.540;-122.632;2022-09-02T14:54:08;9.93;;;6.63;;
970;SDS011;28939;45.540;-122.632;2022-09-02T14:56:43;9.53;;;6.70;;
970;SDS011;28939;45.540;-122.632;2022-09-02T14:59:17;8.40;;;6.27;;
970;SDS011;28939;45.540;-122.632;2022-09-02T15:01:49;13.23;;;7.23;;
970;SDS011;28939;45.540;-122.632;2022-09-02T15:04:21;9.30;;;7.70;;
970;SDS011;28939;45.540;-122.632;2022-09-02T15:06:52;8.90;;;6.90;;
970;SDS011;28939;45.540;-122.632;2022-09-02T15:09:23;8.63;;;6.63;;
970;SDS011;28939;45.540;-122.632;2022-09-02T15:11:54;12.53;;;8.20;;
970;SDS011;28939;45.540;-122.632;2022-09-02T15:14:30;12.23;;;7.97;;
970;SDS011;28939;45.540;-122.632;2022-09-02T15:17:01;10.03;;;7.63;;
970;SDS011;28939;45.540;-122.632;2022-09-02T15:19:35;10.90;;;8.40;;
970;SDS011;28939;45.540;-122.632;2022-09-02T15:22:06;11.33;;;7.40;;
970;SDS011;28939;45.540;-122.632;2022-09-02T15:24:37;9.63;;;7.90;;
970;SDS011;28939;45.540;-122.632;2022-09-02T15:27:09;11.43;;;8.20;;
970;SDS011;28939;45.540;-122.632;2022-09-02T15:29:44;9.60;;;7.80;;
970;SDS011;28939;45.540;-122.632;2022-09-02T15:32:15;9.73;;;7.90;;
970;SDS011;28939;45.540;-122.632;2022-09-02T15:34:46;9.63;;;7.17;;
970;SDS011;28939;45.540;-122.632;2022-09-02T15:37:16;8.93;;;6.97;;
970;SDS011;28939;45.540;-122.632;2022-09-02T15:39:48;8.63;;;7.57;;
970;SDS011;28939;45.540;-122.632;2022-09-02T15:42:19;9.90;;;8.10;;
970;SDS011;28939;45.540;-122.632;2022-09-02T15:44:52;9.33;;;8.30;;
970;SDS011;28939;45.540;-122.632;2022-09-02T15:47:22;9.80;;;8.40;;
970;SDS011;28939;45.540;-122.632;2022-09-02T15:49:56;10.47;;;8.47;;